sensor_id;sensor_type;location;lat;lon;timestamp;P1;durP1;ratioP1;P2;durP2;ratioP2
5414;SDS011;2730;51.512;7.504;2022-08-14T05:01:03;12.70;;;11.37;;
5414;SDS011;2730;51.512;7.504;2022-08-14T05:03:32;15.83;;;11.27;;
5414;SDS011;2730;51.512;7.504;2022-08-14T05:06:01;13.40;;;11.60;;
5414;SDS011;2730;51.512;7.504;2022-08-14T05:08:30;13.40;;;11.03;;
5414;SDS011;2730;51.512;7.504;2022-08-14T05:10:58;14.67;;;11.67;;
5414;SDS011;2730;51.512;7.504;2022-08-14T05:13:28;12.87;;;11.53;;
5414;SDS011;2730;51.512;7.504;2022-08-14T05:15:57;14.20;;;11.97;;
5414;SDS011;2730;51.512;7.504;2022-08-14T05:18:27;15.40;;;11.50;;
5414;SDS011;2730;51.512;7.504;2022-08-14T05:20:59;13.07;;;11.00;;
5414;SDS011;2730;51.512;7.504;2022-08-14T05:23:27;15.60;;;11.00;;
5414;SDS011;2730;51.512;7.504;2022-08-14T05:25:56;17.00;;;11.73;;
5414;SDS011;2730;51.512;7.504;2022-08-14T05:28:26;13.60;;;10.77;;
5414;SDS011;2730;51.512;7.504;2022-08-14T05:30:54;15.10;;;11.50;;
5414;SDS011;2730;51.512;7.504;2022-08-14T05:33:22;16.43;;;11.60;;
5414;SDS011;2730;51.512;7.504;2022-08-14T05:35:55;14.23;;;11.47;;
5414;SDS011;2730;51.512;7.504;2022-08-14T05:38:25;13.33;;;11.17;;
5414;SDS011;2730;51.512;7.504;2022-08-14T05:40:54;14.43;;;11.43;;
5414;SDS011;2730;51.512;7.504;2022-08-14T05:43:21;16.40;;;12.47;;
5414;SDS011;2730;51.512;7.504;2022-08-14T05:45:48;13.60;;;12.20;;
5414;SDS011;2730;51.512;7.504;2022-08-14T05:48:15;16.30;;;11.00;;
5414;SDS011;2730;51.512;7.504;2022-08-14T05:50:42;12.83;;;10.17;;
5414;SDS011;2730;51.512;7.504;2022-08-14T05:53:10;14.97;;;11.10;;
5414;SDS011;2730;51.512;7.504;2022-08-14T05:55:37;13.60;;;10.47;;
5414;SDS011;2730;51.512;7.504;2022-08-14T05:58:05;12.10;;;10.47;;
5414;SDS011;2730;51.512;7.504;2022-08-14T06:00:34;15.63;;;11.37;;
5414;SDS011;2730;51.512;7.504;2022-08-14T06:03:02;14.30;;;11.17;;
5414;SDS011;2730;51.512;7.504;2022-08-14T06:05:31;13.93;;;10.73;;
5414;SDS011;2730;51.512;7.504;2022-08-14T06:07:58;17.37;;;10.83;;
5414;SDS011;2730;51.512;7.504;2022-08-14T06:10:27;16.20;;;10.90;;
5414;SDS011;2730;51.512;7.504;2022-08-14T06:12:56;15.87;;;11.50;;
5414;SDS011;2730;51.512;7.504;2022-08-14T06:15:26;14.80;;;11.20;;
5414;SDS011;2730;51.512;7.504;2022-08-14T06:17:53;14.63;;;11.20;;
5414;SDS011;2730;51.512;7.504;2022-08-14T06:20:21;13.60;;;12.17;;
5414;SDS011;2730;51.512;7.504;2022-08-14T06:22:48;13.70;;;10.80;;
5414;SDS011;2730;51.512;7.504;2022-08-14T06:25:16;18.80;;;10.70;;
5414;SDS011;2730;51.512;7.504;2022-08-14T06:27:45;12.90;;;11.50;;
5414;SDS011;2730;51.512;7.504;2022-08-14T06:30:13;12.50;;;10.57;;
5414;SDS011;2730;51.512;7.504;2022-08-14T06:32:41;11.70;;;10.50;;
5414;SDS011;2730;51.512;7.504;2022-08-14T06:35:09;10.67;;;9.57;;
5414;SDS011;2730;51.512;7.504;2022-08-14T06:37:39;12.67;;;10.17;;
5414;SDS011;2730;51.512;7.504;2022-08-14T06:40:08;10.10;;;9.07;;
5414;SDS011;2730;51.512;7.504;2022-08-14T06:42:36;11.47;;;9.50;;
5414;SDS011;2730;51.512;7.504;2022-08-14T06:45:05;10.90;;;9.80;;
5414;SDS011;2730;51.512;7.504;2022-08-14T06:47:33;10.23;;;9.13;;
5414;SDS011;2730;51.512;7.504;2022-08-14T06:50:01;10.90;;;9.70;;
5414;SDS011;2730;51.512;7.504;2022-08-14T06:52:29;11.07;;;9.97;;
5414;SDS011;2730;51.512;7.504;2022-08-14T06:54:56;12.80;;;10.43;;
5414;SDS011;2730;51.512;7.504;2022-08-14T06:57:23;9.73;;;8.80;;
5414;SDS011;2730;51.512;7.504;2022-08-14T06:59:51;12.37;;;9.30;;
5414;SDS011;2730;51.512;7.504;2022-08-14T07:02:19;9.80;;;9.03;;
5414;SDS011;2730;51.512;7.504;2022-08-14T07:05:04;9.80;;;9.00;;
5414;SDS011;2730;51.512;7.504;2022-08-14T07:07:49;10.47;;;8.60;;
5414;SDS011;2730;51.512;7.504;2022-08-14T07:10:19;10.13;;;9.20;;
5414;SDS011;2730;51.512;7.504;2022-08-14T07:12:49;9.93;;;8.93;;
5414;SDS011;2730;51.512;7.504;2022-08-14T07:15:21;9.60;;;8.20;;
5414;SDS011;2730;51.512;7.504;2022-08-14T07:21:04;8.53;;;7.80;;
5414;SDS011;2730;51.512;7.504;2022-08-14T07:23:31;9.27;;;8.43;;
5414;SDS011;2730;51.512;7.504;2022-08-14T07:25:59;8.33;;;7.60;;
5414;SDS011;2730;51.512;7.504;2022-08-14T07:28:27;8.37;;;7.73;;
5414;SDS011;2730;51.512;7.504;2022-08-14T07:30:57;7.80;;;7.20;;
5414;SDS011;2730;51.512;7.504;2022-08-14T07:33:25;8.80;;;7.97;;
5414;SDS011;2730;51.512;7.504;2022-08-14T07:35:53;8.40;;;7.80;;
5414;SDS011;2730;51.512;7.504;2022-08-14T07:38:22;8.07;;;7.30;;
5414;SDS011;2730;51.512;7.504;2022-08-14T07:40:53;8.60;;;8.00;;
5414;SDS011;2730;51.512;7.504;2022-08-14T07:43:29;8.00;;;7.40;;
5414;SDS011;2730;51.512;7.504;2022-08-14T07:46:01;9.60;;;7.87;;
5414;SDS011;2730;51.512;7.504;2022-08-14T07:48:29;8.97;;;8.17;;
5414;SDS011;2730;51.512;7.504;2022-08-14T07:50:56;9.87;;;9.10;;
5414;SDS011;2730;51.512;7.504;2022-08-14T07:53:25;8.87;;;8.10;;
5414;SDS011;2730;51.512;7.504;2022-08-14T07:55:54;8.80;;;8.10;;
5414;SDS011;2730;51.512;7.504;2022-08-14T07:58:20;8.77;;;8.00;;
5414;SDS011;2730;51.512;7.504;2022-08-14T08:00:47;8.67;;;7.97;;
5414;SDS011;2730;51.512;7.504;2022-08-14T08:03:15;8.67;;;7.87;;
5414;SDS011;2730;51.512;7.504;2022-08-14T08:05:43;8.60;;;7.80;;
5414;SDS011;2730;51.512;7.504;2022-08-14T08:08:11;8.43;;;7.73;;
5414;SDS011;2730;51.512;7.504;2022-08-14T08:10:39;8.20;;;7.50;;
5414;SDS011;2730;51.512;7.504;2022-08-14T08:13:07;8.43;;;7.53;;
5414;SDS011;2730;51.512;7.504;2022-08-14T08:15:38;9.23;;;8.27;;
5414;SDS011;2730;51.512;7.504;2022-08-14T08:21:10;8.47;;;7.40;;
5414;SDS011;2730;51.512;7.504;2022-08-14T08:23:37;9.03;;;8.20;;
5414;SDS011;2730;51.512;7.504;2022-08-14T08:26:06;7.80;;;7.17;;
5414;SDS011;2730;51.512;7.504;2022-08-14T08:28:33;9.10;;;8.20;;
5414;SDS011;2730;51.512;7.504;2022-08-14T08:31:00;8.47;;;7.97;;
5414;SDS011;2730;51.512;7.504;2022-08-14T08:33:30;8.43;;;7.73;;
5414;SDS011;2730;51.512;7.504;2022-08-14T08:36:00;7.27;;;6.70;;
5414;SDS011;2730;51.512;7.504;2022-08-14T08:38:29;10.87;;;8.17;;
5414;SDS011;2730;51.512;7.504;2022-08-14T08:40:57;8.43;;;7.83;;
5414;SDS011;2730;51.512;7.504;2022-08-14T08:43:28;9.00;;;7.70;;
5414;SDS011;2730;51.512;7.504;2022-08-14T08:45:57;8.10;;;7.33;;
5414;SDS011;2730;51.512;7.504;2022-08-14T08:48:26;8.17;;;7.50;;
5414;SDS011;2730;51.512;7.504;2022-08-14T08:50:54;8.13;;;7.50;;
5414;SDS011;2730;51.512;7.504;2022-08-14T08:53:22;12.80;;;7.27;;
5414;SDS011;2730;51.512;7.504;2022-08-14T08:55:54;8.93;;;8.13;;
5414;SDS011;2730;51.512;7.504;2022-08-14T08:58:21;8.20;;;7.50;;
5414;SDS011;2730;51.512;7.504;2022-08-14T09:00:52;8.13;;;7.53;;
5414;SDS011;2730;51.512;7.504;2022-08-14T09:03:21;8.67;;;7.93;;
5414;SDS011;2730;51.512;7.504;2022-08-14T09:05:50;8.23;;;7.47;;
5414;SDS011;2730;51.512;7.504;2022-08-14T09:08:19;8.53;;;7.93;;
5414;SDS011;2730;51.512;7.504;2022-08-14T09:10:49;8.07;;;7.30;;
5414;SDS011;2730;51.512;7.504;2022-08-14T09:13:17;7.70;;;7.20;;
5414;SDS011;2730;51.512;7.504;2022-08-14T09:15:44;8.23;;;7.43;;
5414;SDS011;2730;51.512;7.504;2022-08-14T09:18:15;7.47;;;6.93;;
5414;SDS011;2730;51.512;7.504;2022-08-14T09:20:44;6.90;;;6.50;;
5414;SDS011;2730;51.512;7.504;2022-08-14T09:23:13;7.60;;;7.00;;
5414;SDS011;2730;51.512;7.504;2022-08-14T09:25:41;7.63;;;6.90;;
5414;SDS011;2730;51.512;7.504;2022-08-14T09:28:10;7.00;;;6.40;;
5414;SDS011;2730;51.512;7.504;2022-08-14T09:30:38;7.10;;;6.47;;
5414;SDS011;2730;51.512;7.504;2022-08-14T09:33:18;7.37;;;6.73;;
5414;SDS011;2730;51.512;7.504;2022-08-14T09:36:02;7.03;;;6.63;;
5414;SDS011;2730;51.512;7.504;2022-08-14T09:38:44;9.63;;;7.30;;
5414;SDS011;2730;51.512;7.504;2022-08-14T09:41:17;6.93;;;6.43;;
5414;SDS011;2730;51.512;7.504;2022-08-14T09:43:58;8.43;;;5.97;;
5414;SDS011;2730;51.512;7.504;2022-08-14T09:46:30;5.93;;;4.97;;
5414;SDS011;2730;51.512;7.504;2022-08-14T09:48:59;9.53;;;6.47;;
5414;SDS011;2730;51.512;7.504;2022-08-14T09:51:28;6.10;;;5.53;;
5414;SDS011;2730;51.512;7.504;2022-08-14T09:53:58;6.10;;;5.60;;
5414;SDS011;2730;51.512;7.504;2022-08-14T09:56:27;4.90;;;4.70;;
5414;SDS011;2730;51.512;7.504;2022-08-14T09:58:54;6.23;;;5.93;;
5414;SDS011;2730;51.512;7.504;2022-08-14T10:01:34;6.57;;;6.17;;
5414;SDS011;2730;51.512;7.504;2022-08-14T10:04:05;6.33;;;5.87;;
5414;SDS011;2730;51.512;7.504;2022-08-14T10:06:43;6.33;;;5.93;;
5414;SDS011;2730;51.512;7.504;2022-08-14T10:09:10;6.00;;;5.67;;
5414;SDS011;2730;51.512;7.504;2022-08-14T10:11:38;7.00;;;6.37;;
5414;SDS011;2730;51.512;7.504;2022-08-14T10:14:13;6.23;;;5.83;;
5414;SDS011;2730;51.512;7.504;2022-08-14T10:16:42;7.10;;;6.40;;
5414;SDS011;2730;51.512;7.504;2022-08-14T10:19:12;9.03;;;5.97;;
5414;SDS011;2730;51.512;7.504;2022-08-14T10:21:42;7.63;;;6.50;;
5414;SDS011;2730;51.512;7.504;2022-08-14T10:24:21;6.60;;;6.00;;
5414;SDS011;2730;51.512;7.504;2022-08-14T10:26:51;6.17;;;5.67;;
5414;SDS011;2730;51.512;7.504;2022-08-14T10:29:28;6.73;;;6.33;;
5414;SDS011;2730;51.512;7.504;2022-08-14T10:31:57;7.03;;;6.53;;
5414;SDS011;2730;51.512;7.504;2022-08-14T10:34:31;6.87;;;6.43;;
5414;SDS011;2730;51.512;7.504;2022-08-14T10:37:03;6.80;;;6.40;;
5414;SDS011;2730;51.512;7.504;2022-08-14T10:39:32;7.30;;;6.73;;
5414;SDS011;2730;51.512;7.504;2022-08-14T10:42:02;6.60;;;6.30;;
5414;SDS011;2730;51.512;7.504;2022-08-14T10:44:31;7.37;;;5.63;;
5414;SDS011;2730;51.512;7.504;2022-08-14T10:47:00;7.00;;;6.40;;
5414;SDS011;2730;51.512;7.504;2022-08-14T10:49:31;6.43;;;5.93;;
5414;SDS011;2730;51.512;7.504;2022-08-14T10:52:00;5.83;;;5.53;;
5414;SDS011;2730;51.512;7.504;2022-08-14T10:54:32;7.10;;;6.43;;
5414;SDS011;2730;51.512;7.504;2022-08-14T10:57:16;6.20;;;5.90;;
5414;SDS011;2730;51.512;7.504;2022-08-14T10:59:47;6.57;;;6.17;;
5414;SDS011;2730;51.512;7.504;2022-08-14T11:02:16;6.37;;;5.87;;
5414;SDS011;2730;51.512;7.504;2022-08-14T11:05:05;7.73;;;6.13;;
5414;SDS011;2730;51.512;7.504;2022-08-14T11:07:36;6.53;;;6.03;;
5414;SDS011;2730;51.512;7.504;2022-08-14T11:10:05;6.80;;;6.40;;
5414;SDS011;2730;51.512;7.504;2022-08-14T11:12:38;7.70;;;7.03;;
5414;SDS011;2730;51.512;7.504;2022-08-14T11:15:10;10.07;;;7.40;;
5414;SDS011;2730;51.512;7.504;2022-08-14T11:17:38;6.97;;;6.30;;
5414;SDS011;2730;51.512;7.504;2022-08-14T11:20:08;7.63;;;7.03;;
5414;SDS011;2730;51.512;7.504;2022-08-14T11:22:37;7.40;;;6.60;;
5414;SDS011;2730;51.512;7.504;2022-08-14T11:25:07;7.30;;;6.80;;
5414;SDS011;2730;51.512;7.504;2022-08-14T11:27:35;7.60;;;7.10;;
5414;SDS011;2730;51.512;7.504;2022-08-14T11:30:06;7.60;;;7.00;;
5414;SDS011;2730;51.512;7.504;2022-08-14T11:32:35;7.40;;;6.67;;
5414;SDS011;2730;51.512;7.504;2022-08-14T11:35:04;7.90;;;6.90;;
5414;SDS011;2730;51.512;7.504;2022-08-14T11:37:32;7.30;;;6.70;;
5414;SDS011;2730;51.512;7.504;2022-08-14T11:39:59;8.33;;;7.37;;
5414;SDS011;2730;51.512;7.504;2022-08-14T11:42:27;7.07;;;6.23;;
5414;SDS011;2730;51.512;7.504;2022-08-14T11:44:56;7.00;;;6.40;;
5414;SDS011;2730;51.512;7.504;2022-08-14T11:47:26;6.73;;;6.20;;
5414;SDS011;2730;51.512;7.504;2022-08-14T11:49:53;7.50;;;6.93;;
5414;SDS011;2730;51.512;7.504;2022-08-14T11:52:20;8.00;;;7.30;;
5414;SDS011;2730;51.512;7.504;2022-08-14T11:54:56;8.47;;;7.30;;
5414;SDS011;2730;51.512;7.504;2022-08-14T11:57:24;7.33;;;6.90;;
5414;SDS011;2730;51.512;7.504;2022-08-14T11:59:59;7.13;;;6.53;;
5414;SDS011;2730;51.512;7.504;2022-08-14T12:02:28;8.63;;;7.60;;
5414;SDS011;2730;51.512;7.504;2022-08-14T12:04:55;8.03;;;7.00;;
5414;SDS011;2730;51.512;7.504;2022-08-14T12:07:22;9.97;;;7.50;;
5414;SDS011;2730;51.512;7.504;2022-08-14T12:09:50;11.30;;;7.93;;
5414;SDS011;2730;51.512;7.504;2022-08-14T12:12:21;7.80;;;7.17;;
5414;SDS011;2730;51.512;7.504;2022-08-14T12:14:50;9.30;;;7.40;;
5414;SDS011;2730;51.512;7.504;2022-08-14T12:17:20;8.13;;;7.53;;
5414;SDS011;2730;51.512;7.504;2022-08-14T12:19:49;8.43;;;7.07;;
5414;SDS011;2730;51.512;7.504;2022-08-14T12:22:18;8.17;;;7.37;;
5414;SDS011;2730;51.512;7.504;2022-08-14T12:24:56;8.67;;;7.53;;
5414;SDS011;2730;51.512;7.504;2022-08-14T12:27:34;7.33;;;6.90;;
5414;SDS011;2730;51.512;7.504;2022-08-14T12:30:02;7.73;;;7.03;;
5414;SDS011;2730;51.512;7.504;2022-08-14T12:32:37;8.23;;;7.63;;
5414;SDS011;2730;51.512;7.504;2022-08-14T12:35:05;7.60;;;7.10;;
5414;SDS011;2730;51.512;7.504;2022-08-14T12:37:33;7.80;;;7.13;;
5414;SDS011;2730;51.512;7.504;2022-08-14T12:40:07;7.10;;;6.57;;
5414;SDS011;2730;51.512;7.504;2022-08-14T12:42:37;7.80;;;7.20;;
5414;SDS011;2730;51.512;7.504;2022-08-14T12:45:07;7.27;;;6.73;;
5414;SDS011;2730;51.512;7.504;2022-08-14T12:47:37;7.70;;;7.03;;
5414;SDS011;2730;51.512;7.504;2022-08-14T12:50:05;7.40;;;6.90;;
5414;SDS011;2730;51.512;7.504;2022-08-14T12:52:34;7.33;;;6.30;;
5414;SDS011;2730;51.512;7.504;2022-08-14T12:55:05;8.40;;;7.40;;
5414;SDS011;2730;51.512;7.504;2022-08-14T12:57:37;7.50;;;6.90;;
5414;SDS011;2730;51.512;7.504;2022-08-14T13:00:07;7.10;;;6.23;;
5414;SDS011;2730;51.512;7.504;2022-08-14T13:02:39;6.70;;;6.20;;
5414;SDS011;2730;51.512;7.504;2022-08-14T13:05:06;7.27;;;6.70;;
5414;SDS011;2730;51.512;7.504;2022-08-14T13:07:35;7.03;;;6.53;;
5414;SDS011;2730;51.512;7.504;2022-08-14T13:10:04;8.03;;;7.23;;
5414;SDS011;2730;51.512;7.504;2022-08-14T13:12:34;7.53;;;6.93;;
5414;SDS011;2730;51.512;7.504;2022-08-14T13:15:04;7.03;;;6.30;;
5414;SDS011;2730;51.512;7.504;2022-08-14T13:17:34;6.70;;;6.20;;
5414;SDS011;2730;51.512;7.504;2022-08-14T13:20:05;7.13;;;6.53;;
5414;SDS011;2730;51.512;7.504;2022-08-14T13:22:34;8.90;;;6.37;;
5414;SDS011;2730;51.512;7.504;2022-08-14T13:25:04;7.37;;;6.67;;
5414;SDS011;2730;51.512;7.504;2022-08-14T13:27:32;7.63;;;6.97;;
5414;SDS011;2730;51.512;7.504;2022-08-14T13:30:03;7.50;;;6.90;;
5414;SDS011;2730;51.512;7.504;2022-08-14T13:32:34;7.33;;;6.83;;
5414;SDS011;2730;51.512;7.504;2022-08-14T13:35:03;7.30;;;6.70;;
5414;SDS011;2730;51.512;7.504;2022-08-14T13:37:31;12.87;;;7.10;;
5414;SDS011;2730;51.512;7.504;2022-08-14T13:39:59;6.53;;;6.13;;
5414;SDS011;2730;51.512;7.504;2022-08-14T13:42:26;6.70;;;6.10;;
5414;SDS011;2730;51.512;7.504;2022-08-14T13:44:54;6.70;;;6.10;;
5414;SDS011;2730;51.512;7.504;2022-08-14T13:47:24;6.70;;;5.63;;
5414;SDS011;2730;51.512;7.504;2022-08-14T13:49:53;6.37;;;5.77;;
5414;SDS011;2730;51.512;7.504;2022-08-14T13:52:22;7.90;;;6.00;;
5414;SDS011;2730;51.512;7.504;2022-08-14T13:54:52;6.17;;;5.77;;
5414;SDS011;2730;51.512;7.504;2022-08-14T13:57:21;6.47;;;5.87;;
5414;SDS011;2730;51.512;7.504;2022-08-14T13:59:50;6.33;;;5.73;;
5414;SDS011;2730;51.512;7.504;2022-08-14T14:02:17;6.53;;;5.97;;
5414;SDS011;2730;51.512;7.504;2022-08-14T14:04:47;6.30;;;5.80;;
5414;SDS011;2730;51.512;7.504;2022-08-14T14:07:14;5.83;;;5.33;;
5414;SDS011;2730;51.512;7.504;2022-08-14T14:09:46;9.37;;;6.13;;
5414;SDS011;2730;51.512;7.504;2022-08-14T14:12:14;5.80;;;5.30;;
5414;SDS011;2730;51.512;7.504;2022-08-14T14:14:41;6.40;;;6.00;;
5414;SDS011;2730;51.512;7.504;2022-08-14T14:17:09;5.67;;;5.27;;
5414;SDS011;2730;51.512;7.504;2022-08-14T14:19:41;5.30;;;5.00;;
5414;SDS011;2730;51.512;7.504;2022-08-14T14:22:11;6.40;;;5.90;;
5414;SDS011;2730;51.512;7.504;2022-08-14T14:24:41;6.80;;;5.00;;
5414;SDS011;2730;51.512;7.504;2022-08-14T14:27:09;5.40;;;5.00;;
5414;SDS011;2730;51.512;7.504;2022-08-14T14:29:41;8.87;;;4.97;;
5414;SDS011;2730;51.512;7.504;2022-08-14T14:32:11;4.60;;;4.40;;
5414;SDS011;2730;51.512;7.504;2022-08-14T14:34:38;5.17;;;4.87;;
5414;SDS011;2730;51.512;7.504;2022-08-14T14:37:07;5.17;;;4.87;;
5414;SDS011;2730;51.512;7.504;2022-08-14T14:39:40;5.47;;;5.07;;
5414;SDS011;2730;51.512;7.504;2022-08-14T14:42:07;5.30;;;4.90;;
5414;SDS011;2730;51.512;7.504;2022-08-14T14:44:37;5.47;;;5.07;;
5414;SDS011;2730;51.512;7.504;2022-08-14T14:47:08;5.03;;;4.73;;
5414;SDS011;2730;51.512;7.504;2022-08-14T14:49:35;6.00;;;5.50;;
5414;SDS011;2730;51.512;7.504;2022-08-14T14:52:03;5.40;;;4.90;;
5414;SDS011;2730;51.512;7.504;2022-08-14T14:54:32;5.57;;;5.03;;
5414;SDS011;2730;51.512;7.504;2022-08-14T14:57:01;5.77;;;5.27;;
5414;SDS011;2730;51.512;7.504;2022-08-14T14:59:29;5.40;;;5.10;;
5414;SDS011;2730;51.512;7.504;2022-08-14T15:01:58;4.93;;;4.63;;
5414;SDS011;2730;51.512;7.504;2022-08-14T15:04:30;5.37;;;5.00;;
5414;SDS011;2730;51.512;7.504;2022-08-14T15:06:57;5.13;;;4.83;;
5414;SDS011;2730;51.512;7.504;2022-08-14T15:09:24;4.83;;;4.50;;
5414;SDS011;2730;51.512;7.504;2022-08-14T15:11:51;6.53;;;4.90;;
5414;SDS011;2730;51.512;7.504;2022-08-14T15:14:19;5.03;;;4.73;;
5414;SDS011;2730;51.512;7.504;2022-08-14T15:16:48;4.77;;;4.47;;
5414;SDS011;2730;51.512;7.504;2022-08-14T15:19:15;6.63;;;5.47;;
5414;SDS011;2730;51.512;7.504;2022-08-14T15:21:42;5.70;;;5.30;;
5414;SDS011;2730;51.512;7.504;2022-08-14T15:24:09;5.37;;;5.07;;
5414;SDS011;2730;51.512;7.504;2022-08-14T15:26:37;5.10;;;4.80;;
5414;SDS011;2730;51.512;7.504;2022-08-14T15:29:04;6.17;;;5.57;;
5414;SDS011;2730;51.512;7.504;2022-08-14T15:31:33;5.40;;;5.10;;
5414;SDS011;2730;51.512;7.504;2022-08-14T15:34:01;5.63;;;5.33;;
5414;SDS011;2730;51.512;7.504;2022-08-14T15:36:39;5.67;;;5.27;;
5414;SDS011;2730;51.512;7.504;2022-08-14T15:39:08;5.40;;;5.07;;
5414;SDS011;2730;51.512;7.504;2022-08-14T15:41:36;5.25;;;4.95;;
5414;SDS011;2730;51.512;7.504;2022-08-14T15:44:03;5.80;;;4.77;;
5414;SDS011;2730;51.512;7.504;2022-08-14T15:46:31;4.73;;;4.50;;
5414;SDS011;2730;51.512;7.504;2022-08-14T15:49:00;7.40;;;5.03;;
5414;SDS011;2730;51.512;7.504;2022-08-14T15:51:27;4.80;;;4.50;;
5414;SDS011;2730;51.512;7.504;2022-08-14T15:53:56;4.77;;;4.40;;
5414;SDS011;2730;51.512;7.504;2022-08-14T15:56:23;5.73;;;5.33;;
5414;SDS011;2730;51.512;7.504;2022-08-14T15:58:50;5.17;;;4.87;;
5414;SDS011;2730;51.512;7.504;2022-08-14T16:01:17;5.17;;;4.87;;
5414;SDS011;2730;51.512;7.504;2022-08-14T16:03:47;4.60;;;4.40;;
5414;SDS011;2730;51.512;7.504;2022-08-14T16:06:19;5.40;;;5.00;;
5414;SDS011;2730;51.512;7.504;2022-08-14T16:08:50;5.00;;;4.70;;
5414;SDS011;2730;51.512;7.504;2022-08-14T16:11:18;5.53;;;5.13;;
5414;SDS011;2730;51.512;7.504;2022-08-14T16:13:45;6.43;;;5.73;;
5414;SDS011;2730;51.512;7.504;2022-08-14T16:16:14;5.33;;;4.83;;
5414;SDS011;2730;51.512;7.504;2022-08-14T16:18:44;5.53;;;5.13;;
5414;SDS011;2730;51.512;7.504;2022-08-14T16:21:14;5.20;;;4.90;;
5414;SDS011;2730;51.512;7.504;2022-08-14T16:23:46;5.50;;;5.20;;
5414;SDS011;2730;51.512;7.504;2022-08-14T16:26:16;5.13;;;4.83;;
5414;SDS011;2730;51.512;7.504;2022-08-14T16:28:47;6.07;;;5.47;;
5414;SDS011;2730;51.512;7.504;2022-08-14T16:31:16;5.87;;;5.47;;
5414;SDS011;2730;51.512;7.504;2022-08-14T16:33:45;5.77;;;5.40;;
5414;SDS011;2730;51.512;7.504;2022-08-14T16:36:12;5.60;;;5.13;;
5414;SDS011;2730;51.512;7.504;2022-08-14T16:38:49;5.67;;;5.20;;
5414;SDS011;2730;51.512;7.504;2022-08-14T16:41:17;6.30;;;5.70;;
5414;SDS011;2730;51.512;7.504;2022-08-14T16:43:55;5.67;;;5.00;;
5414;SDS011;2730;51.512;7.504;2022-08-14T16:46:25;6.10;;;5.50;;
5414;SDS011;2730;51.512;7.504;2022-08-14T16:48:55;5.43;;;5.13;;
5414;SDS011;2730;51.512;7.504;2022-08-14T16:51:24;6.23;;;5.27;;
5414;SDS011;2730;51.512;7.504;2022-08-14T16:53:53;5.00;;;4.70;;
5414;SDS011;2730;51.512;7.504;2022-08-14T16:56:23;5.07;;;4.77;;
5414;SDS011;2730;51.512;7.504;2022-08-14T16:59:02;5.40;;;5.00;;
5414;SDS011;2730;51.512;7.504;2022-08-14T17:01:34;5.13;;;4.70;;
5414;SDS011;2730;51.512;7.504;2022-08-14T17:04:03;5.13;;;4.77;;
5414;SDS011;2730;51.512;7.504;2022-08-14T17:06:34;4.73;;;4.43;;
5414;SDS011;2730;51.512;7.504;2022-08-14T17:09:05;6.40;;;6.00;;
5414;SDS011;2730;51.512;7.504;2022-08-14T17:11:35;5.17;;;4.77;;
5414;SDS011;2730;51.512;7.504;2022-08-14T17:14:16;5.50;;;5.10;;
5414;SDS011;2730;51.512;7.504;2022-08-14T17:16:43;6.73;;;6.13;;
5414;SDS011;2730;51.512;7.504;2022-08-14T17:19:10;5.70;;;5.40;;
5414;SDS011;2730;51.512;7.504;2022-08-14T17:21:40;5.77;;;5.20;;
5414;SDS011;2730;51.512;7.504;2022-08-14T17:24:10;9.63;;;5.70;;
5414;SDS011;2730;51.512;7.504;2022-08-14T17:26:39;5.53;;;5.03;;
5414;SDS011;2730;51.512;7.504;2022-08-14T17:29:09;5.13;;;4.73;;
5414;SDS011;2730;51.512;7.504;2022-08-14T17:31:38;6.03;;;5.57;;
5414;SDS011;2730;51.512;7.504;2022-08-14T17:34:06;5.80;;;5.20;;
5414;SDS011;2730;51.512;7.504;2022-08-14T17:36:34;6.17;;;4.63;;
5414;SDS011;2730;51.512;7.504;2022-08-14T17:39:05;7.63;;;5.33;;
5414;SDS011;2730;51.512;7.504;2022-08-14T17:41:35;4.67;;;4.37;;
5414;SDS011;2730;51.512;7.504;2022-08-14T17:44:11;7.07;;;4.87;;
5414;SDS011;2730;51.512;7.504;2022-08-14T17:46:47;5.10;;;4.80;;
5414;SDS011;2730;51.512;7.504;2022-08-14T17:49:16;5.13;;;4.73;;
5414;SDS011;2730;51.512;7.504;2022-08-14T17:51:59;5.67;;;5.27;;
5414;SDS011;2730;51.512;7.504;2022-08-14T17:54:30;5.20;;;4.80;;
5414;SDS011;2730;51.512;7.504;2022-08-14T17:57:01;4.97;;;4.67;;
5414;SDS011;2730;51.512;7.504;2022-08-14T17:59:31;5.80;;;5.23;;
5414;SDS011;2730;51.512;7.504;2022-08-14T18:02:00;5.70;;;5.10;;
5414;SDS011;2730;51.512;7.504;2022-08-14T18:04:29;5.87;;;5.30;;
5414;SDS011;2730;51.512;7.504;2022-08-14T18:06:58;6.40;;;5.90;;
5414;SDS011;2730;51.512;7.504;2022-08-14T18:09:27;11.33;;;6.27;;
5414;SDS011;2730;51.512;7.504;2022-08-14T18:11:55;7.23;;;6.73;;
5414;SDS011;2730;51.512;7.504;2022-08-14T18:14:27;6.70;;;6.10;;
5414;SDS011;2730;51.512;7.504;2022-08-14T18:16:54;6.50;;;5.90;;
5414;SDS011;2730;51.512;7.504;2022-08-14T18:19:22;6.87;;;6.23;;
5414;SDS011;2730;51.512;7.504;2022-08-14T18:21:51;6.90;;;6.30;;
5414;SDS011;2730;51.512;7.504;2022-08-14T18:24:18;5.83;;;5.43;;
5414;SDS011;2730;51.512;7.504;2022-08-14T18:26:46;8.23;;;5.60;;
5414;SDS011;2730;51.512;7.504;2022-08-14T18:29:17;5.90;;;5.30;;
5414;SDS011;2730;51.512;7.504;2022-08-14T18:31:47;5.67;;;5.10;;
5414;SDS011;2730;51.512;7.504;2022-08-14T18:34:14;6.47;;;5.87;;
5414;SDS011;2730;51.512;7.504;2022-08-14T18:36:46;7.13;;;5.87;;
5414;SDS011;2730;51.512;7.504;2022-08-14T18:45:07;8.00;;;5.23;;
5414;SDS011;2730;51.512;7.504;2022-08-14T18:47:37;17.90;;;6.30;;
5414;SDS011;2730;51.512;7.504;2022-08-14T18:50:05;15.97;;;7.30;;
5414;SDS011;2730;51.512;7.504;2022-08-14T18:52:41;22.00;;;7.00;;
5414;SDS011;2730;51.512;7.504;2022-08-14T18:58:17;19.63;;;9.13;;
5414;SDS011;2730;51.512;7.504;2022-08-14T19:00:47;17.17;;;8.60;;
5414;SDS011;2730;51.512;7.504;2022-08-14T19:06:35;12.50;;;7.77;;
5414;SDS011;2730;51.512;7.504;2022-08-14T19:09:05;12.87;;;9.57;;
5414;SDS011;2730;51.512;7.504;2022-08-14T19:11:45;18.67;;;12.20;;
5414;SDS011;2730;51.512;7.504;2022-08-14T19:14:13;33.17;;;16.70;;
5414;SDS011;2730;51.512;7.504;2022-08-14T19:16:42;34.30;;;17.13;;
5414;SDS011;2730;51.512;7.504;2022-08-14T19:19:10;23.97;;;16.50;;
5414;SDS011;2730;51.512;7.504;2022-08-14T19:21:40;23.57;;;12.90;;
5414;SDS011;2730;51.512;7.504;2022-08-14T19:24:09;20.90;;;11.00;;
5414;SDS011;2730;51.512;7.504;2022-08-14T19:26:39;29.00;;;12.87;;
5414;SDS011;2730;51.512;7.504;2022-08-14T19:29:20;19.43;;;11.70;;
5414;SDS011;2730;51.512;7.504;2022-08-14T19:31:52;14.13;;;10.20;;
5414;SDS011;2730;51.512;7.504;2022-08-14T19:34:33;21.77;;;12.17;;
5414;SDS011;2730;51.512;7.504;2022-08-14T19:37:07;24.53;;;11.57;;
5414;SDS011;2730;51.512;7.504;2022-08-14T19:39:47;17.57;;;12.23;;
5414;SDS011;2730;51.512;7.504;2022-08-14T19:42:19;16.73;;;11.73;;
5414;SDS011;2730;51.512;7.504;2022-08-14T19:44:47;19.27;;;12.37;;
5414;SDS011;2730;51.512;7.504;2022-08-14T19:47:15;15.80;;;11.50;;
5414;SDS011;2730;51.512;7.504;2022-08-14T19:49:44;17.20;;;11.77;;
5414;SDS011;2730;51.512;7.504;2022-08-14T19:52:18;16.20;;;11.10;;
5414;SDS011;2730;51.512;7.504;2022-08-14T19:54:46;13.63;;;10.80;;
5414;SDS011;2730;51.512;7.504;2022-08-14T19:57:16;17.57;;;12.40;;
5414;SDS011;2730;51.512;7.504;2022-08-14T19:59:45;16.42;;;12.07;;
5414;SDS011;2730;51.512;7.504;2022-08-14T20:02:13;18.02;;;12.32;;
5414;SDS011;2730;51.512;7.504;2022-08-14T20:04:55;16.70;;;12.67;;
5414;SDS011;2730;51.512;7.504;2022-08-14T20:07:28;18.13;;;11.97;;
5414;SDS011;2730;51.512;7.504;2022-08-14T20:09:56;15.20;;;11.40;;
5414;SDS011;2730;51.512;7.504;2022-08-14T20:12:23;13.30;;;11.90;;
5414;SDS011;2730;51.512;7.504;2022-08-14T20:14:49;12.63;;;11.43;;
5414;SDS011;2730;51.512;7.504;2022-08-14T20:17:17;12.47;;;10.20;;
5414;SDS011;2730;51.512;7.504;2022-08-14T20:19:45;11.70;;;9.57;;
5414;SDS011;2730;51.512;7.504;2022-08-14T20:22:13;16.20;;;10.07;;
5414;SDS011;2730;51.512;7.504;2022-08-14T20:24:42;15.80;;;10.00;;
5414;SDS011;2730;51.512;7.504;2022-08-14T20:27:14;11.60;;;10.20;;
5414;SDS011;2730;51.512;7.504;2022-08-14T20:29:59;12.97;;;10.67;;
5414;SDS011;2730;51.512;7.504;2022-08-14T20:32:38;12.30;;;10.43;;
5414;SDS011;2730;51.512;7.504;2022-08-14T20:35:21;13.70;;;11.80;;
5414;SDS011;2730;51.512;7.504;2022-08-14T20:37:53;12.70;;;11.20;;
5414;SDS011;2730;51.512;7.504;2022-08-14T20:40:32;12.87;;;10.20;;
5414;SDS011;2730;51.512;7.504;2022-08-14T20:43:00;11.90;;;10.70;;